Seeley, CA

11:22 AM PDT en Agosto 25, 2016 (GMT -0700)
El Centro Naval Air Facility | | Change Station

Alt -43 ft 32.83 °N, 115.66 °W | Updated 26 minutes ago

Clear
Despejado
96 ° F
Sensación térmica 97 ° F
N
0
Viento Variable Viento desde Norte

Hoy
Alta -- | Baja -- ° F
--% Posibilidad de precipitaciones
Ayer
Alta -- | Baja -- ° F
Precip. -- pul
Presión 29.90 pul
Visibilidad 10.0 Millas
Nubes Despejado
Índice de calor 97 ° F
Punto de rocío 62 ° F
Humedad 32%
Precipitaciones 0.00 pul
Espesor de la nieve No disponible.
6:13 AM 7:15 PM
Cuarto menguante, 43% visible
METAR KNJK 251756Z 00000KT 10SM CLR 36/17 A2985 RMK AO2 SLP123 T03560167 10356 20244 58002 $
Presión 29.90 pul
Visibilidad 10.0 Millas
Nubes Despejado
Índice de calor 97 ° F
Punto de rocío 62 ° F
Humedad 32%
Precipitaciones 0.00 pul
Espesor de la nieve No disponible.
6:13 AM 7:15 PM
Cuarto menguante, 43% visible
METAR KNJK 251756Z 00000KT 10SM CLR 36/17 A2985 RMK AO2 SLP123 T03560167 10356 20244 58002 $
A tropical disturbance pushing toward the Bahamas, is expected to develop into a tropical depression or storm, and will likely target Florida and the Gulf Coast this weekend into next week.

Right now, the disturbance remains a broad area of low pressure pushing through the Dominican Republic and Haiti, headed toward the southeast Bahamas. Rainfall totals over 3 inches (with locally higher amounts) are expected in Hispañiola, particularly over elevated terrain.

10-Day Weather Forecast

Almanac

Astronomía

Aug. 25, 2016 Salida Puesta
Hora real
Crepúsculo civil
Crepúsculo náutico
Crepúsculo astronómico
Luna
Horas de luz
Horas de luz
Tomorrow will be .
, % of the Moon is Illuminated

Extremos de hoy

Máximos del estado Bajos del estado

Community

WunderPhotos

Upload Photos

1,934,890 ¡fotos cargadas!

WunderBlog® & News

Nearby

Calidad del aire

  Calidad del aire Índice AQ Contaminante
Not available.

Grosos de nieve

Estación Profundido Altura

Actividad de terremotos

Ciudad Distance Mag. Tiempo y dato
Magnitud mínima muestra es 2,5.

Temperaturas de aguas costeras

Lugar Temperatura

Stations

Estaciones meteorológicas cercanas

Ubicación de la estación Temp. Vientos helados Punto de rocío Humedad Viento Precip. Alt Actualizado Tipo
                   

Watches & Warnings

There are currently no watches in effect.